sensor_id;sensor_type;location;lat;lon;timestamp;temperature;humidity
9915;DHT22;4996;48.746;9.174;2023-02-28T00:00:08;-0.10;97.80
9915;DHT22;4996;48.746;9.174;2023-02-28T00:02:38;0.00;98.10
9915;DHT22;4996;48.746;9.174;2023-02-28T00:05:04;-0.20;98.50
9915;DHT22;4996;48.746;9.174;2023-02-28T00:07:30;-0.40;99.30
9915;DHT22;4996;48.746;9.174;2023-02-28T00:09:56;-0.30;99.80
9915;DHT22;4996;48.746;9.174;2023-02-28T00:12:22;-0.40;99.90
9915;DHT22;4996;48.746;9.174;2023-02-28T00:14:48;-0.30;99.90
9915;DHT22;4996;48.746;9.174;2023-02-28T00:17:14;-0.20;99.90
9915;DHT22;4996;48.746;9.174;2023-02-28T00:19:39;-0.30;99.90
9915;DHT22;4996;48.746;9.174;2023-02-28T00:22:05;-0.40;99.90
9915;DHT22;4996;48.746;9.174;2023-02-28T00:24:30;-0.60;99.90
9915;DHT22;4996;48.746;9.174;2023-02-28T00:26:56;-0.50;99.90
9915;DHT22;4996;48.746;9.174;2023-02-28T00:29:21;-0.60;99.90
9915;DHT22;4996;48.746;9.174;2023-02-28T00:31:47;-0.60;99.90
9915;DHT22;4996;48.746;9.174;2023-02-28T00:34:12;-0.60;99.90
9915;DHT22;4996;48.746;9.174;2023-02-28T00:36:38;-0.70;99.90
9915;DHT22;4996;48.746;9.174;2023-02-28T00:39:04;-0.70;99.90
9915;DHT22;4996;48.746;9.174;2023-02-28T00:41:29;-0.80;99.90
9915;DHT22;4996;48.746;9.174;2023-02-28T00:43:55;-0.80;99.90
9915;DHT22;4996;48.746;9.174;2023-02-28T00:46:20;-1.00;99.90
9915;DHT22;4996;48.746;9.174;2023-02-28T00:48:46;-0.90;99.90
9915;DHT22;4996;48.746;9.174;2023-02-28T00:51:11;-0.90;99.90
9915;DHT22;4996;48.746;9.174;2023-02-28T00:53:37;-0.90;99.90
9915;DHT22;4996;48.746;9.174;2023-02-28T00:56:02;-0.80;99.90
9915;DHT22;4996;48.746;9.174;2023-02-28T00:58:28;-0.70;99.90
9915;DHT22;4996;48.746;9.174;2023-02-28T01:00:54;-0.70;99.90
9915;DHT22;4996;48.746;9.174;2023-02-28T01:03:21;-0.60;99.90
9915;DHT22;4996;48.746;9.174;2023-02-28T01:05:47;-0.70;99.90
9915;DHT22;4996;48.746;9.174;2023-02-28T01:08:13;-0.80;99.90
9915;DHT22;4996;48.746;9.174;2023-02-28T01:10:39;-0.80;99.90
9915;DHT22;4996;48.746;9.174;2023-02-28T01:13:05;-0.30;99.90
9915;DHT22;4996;48.746;9.174;2023-02-28T01:15:31;-0.70;99.90
9915;DHT22;4996;48.746;9.174;2023-02-28T01:17:57;-0.70;99.90
9915;DHT22;4996;48.746;9.174;2023-02-28T01:20:23;-0.90;99.90
9915;DHT22;4996;48.746;9.174;2023-02-28T01:22:48;-0.80;99.90
9915;DHT22;4996;48.746;9.174;2023-02-28T01:25:14;-0.90;99.90
9915;DHT22;4996;48.746;9.174;2023-02-28T01:27:40;-0.80;99.90
9915;DHT22;4996;48.746;9.174;2023-02-28T01:30:07;-1.00;99.90
9915;DHT22;4996;48.746;9.174;2023-02-28T01:32:33;-0.90;99.90
9915;DHT22;4996;48.746;9.174;2023-02-28T01:34:58;-0.90;99.90
9915;DHT22;4996;48.746;9.174;2023-02-28T01:37:24;-1.10;99.90
9915;DHT22;4996;48.746;9.174;2023-02-28T01:39:49;-1.00;99.90
9915;DHT22;4996;48.746;9.174;2023-02-28T01:42:15;-1.00;99.90
9915;DHT22;4996;48.746;9.174;2023-02-28T01:47:38;-1.20;99.90
9915;DHT22;4996;48.746;9.174;2023-02-28T01:50:11;-1.10;99.90
9915;DHT22;4996;48.746;9.174;2023-02-28T01:52:37;-1.30;99.90
9915;DHT22;4996;48.746;9.174;2023-02-28T01:55:04;-1.20;99.90
9915;DHT22;4996;48.746;9.174;2023-02-28T01:57:38;-1.20;99.90
9915;DHT22;4996;48.746;9.174;2023-02-28T02:00:08;-1.10;99.90
9915;DHT22;4996;48.746;9.174;2023-02-28T02:02:35;-1.30;99.90
9915;DHT22;4996;48.746;9.174;2023-02-28T02:05:07;-0.90;99.90
9915;DHT22;4996;48.746;9.174;2023-02-28T02:07:38;-1.40;99.90
9915;DHT22;4996;48.746;9.174;2023-02-28T02:10:10;-1.30;99.90
9915;DHT22;4996;48.746;9.174;2023-02-28T02:15:34;-1.40;99.90
9915;DHT22;4996;48.746;9.174;2023-02-28T02:18:07;-1.50;99.90
9915;DHT22;4996;48.746;9.174;2023-02-28T02:20:51;-1.40;99.90
9915;DHT22;4996;48.746;9.174;2023-02-28T02:26:52;-1.20;99.90
9915;DHT22;4996;48.746;9.174;2023-02-28T02:29:39;-1.30;99.90
9915;DHT22;4996;48.746;9.174;2023-02-28T02:35:01;-1.20;99.90
9915;DHT22;4996;48.746;9.174;2023-02-28T02:37:43;-1.40;99.90
9915;DHT22;4996;48.746;9.174;2023-02-28T02:40:48;-1.40;99.90
9915;DHT22;4996;48.746;9.174;2023-02-28T02:43:29;-1.40;99.90
9915;DHT22;4996;48.746;9.174;2023-02-28T02:46:02;-1.50;99.90
9915;DHT22;4996;48.746;9.174;2023-02-28T02:48:32;-1.40;99.90
9915;DHT22;4996;48.746;9.174;2023-02-28T02:51:01;-1.30;99.90
9915;DHT22;4996;48.746;9.174;2023-02-28T02:53:34;-1.30;99.90
9915;DHT22;4996;48.746;9.174;2023-02-28T02:56:03;-1.30;99.90
9915;DHT22;4996;48.746;9.174;2023-02-28T02:58:35;-1.30;99.90
9915;DHT22;4996;48.746;9.174;2023-02-28T03:01:09;-1.20;99.90
9915;DHT22;4996;48.746;9.174;2023-02-28T03:03:35;-1.20;99.90
9915;DHT22;4996;48.746;9.174;2023-02-28T03:06:01;-1.30;99.90
9915;DHT22;4996;48.746;9.174;2023-02-28T03:08:29;-1.30;99.90
9915;DHT22;4996;48.746;9.174;2023-02-28T03:11:04;-1.30;99.90
9915;DHT22;4996;48.746;9.174;2023-02-28T03:16:33;-1.20;99.90
9915;DHT22;4996;48.746;9.174;2023-02-28T03:19:38;-1.30;99.90
9915;DHT22;4996;48.746;9.174;2023-02-28T03:22:14;-1.30;99.90
9915;DHT22;4996;48.746;9.174;2023-02-28T03:27:30;-1.40;99.90
9915;DHT22;4996;48.746;9.174;2023-02-28T03:30:10;-1.30;99.90
9915;DHT22;4996;48.746;9.174;2023-02-28T03:33:01;-1.20;99.90
9915;DHT22;4996;48.746;9.174;2023-02-28T03:35:34;-1.20;99.90
9915;DHT22;4996;48.746;9.174;2023-02-28T03:41:19;-1.20;99.90
9915;DHT22;4996;48.746;9.174;2023-02-28T03:44:07;-1.10;99.90
9915;DHT22;4996;48.746;9.174;2023-02-28T03:46:37;-1.10;99.90
9915;DHT22;4996;48.746;9.174;2023-02-28T03:49:13;-1.40;99.90
9915;DHT22;4996;48.746;9.174;2023-02-28T03:51:41;-1.20;99.90
9915;DHT22;4996;48.746;9.174;2023-02-28T03:54:16;-1.10;99.90
9915;DHT22;4996;48.746;9.174;2023-02-28T03:56:53;-1.10;99.90
9915;DHT22;4996;48.746;9.174;2023-02-28T03:59:25;-1.10;99.90
9915;DHT22;4996;48.746;9.174;2023-02-28T04:01:52;-1.00;99.90
9915;DHT22;4996;48.746;9.174;2023-02-28T04:04:18;-0.90;99.90
9915;DHT22;4996;48.746;9.174;2023-02-28T04:06:44;-0.40;99.90
9915;DHT22;4996;48.746;9.174;2023-02-28T04:09:12;-1.00;99.90
9915;DHT22;4996;48.746;9.174;2023-02-28T04:11:41;-1.10;99.90
9915;DHT22;4996;48.746;9.174;2023-02-28T04:14:08;-1.20;99.90
9915;DHT22;4996;48.746;9.174;2023-02-28T04:16:35;-1.00;99.90
9915;DHT22;4996;48.746;9.174;2023-02-28T04:19:03;-0.80;99.90
9915;DHT22;4996;48.746;9.174;2023-02-28T04:21:40;-0.70;99.90
9915;DHT22;4996;48.746;9.174;2023-02-28T04:24:08;-0.60;99.90
9915;DHT22;4996;48.746;9.174;2023-02-28T04:26:36;-0.50;99.90
9915;DHT22;4996;48.746;9.174;2023-02-28T04:29:03;-0.40;99.90
9915;DHT22;4996;48.746;9.174;2023-02-28T04:31:29;-0.30;99.90
9915;DHT22;4996;48.746;9.174;2023-02-28T04:33:54;-0.10;99.90
9915;DHT22;4996;48.746;9.174;2023-02-28T04:36:20;-0.40;99.90
9915;DHT22;4996;48.746;9.174;2023-02-28T04:38:48;-0.30;99.90
9915;DHT22;4996;48.746;9.174;2023-02-28T04:41:13;-0.40;99.90
9915;DHT22;4996;48.746;9.174;2023-02-28T04:43:39;-0.40;99.90
9915;DHT22;4996;48.746;9.174;2023-02-28T04:46:05;-0.40;99.90
9915;DHT22;4996;48.746;9.174;2023-02-28T04:48:33;-0.40;99.90
9915;DHT22;4996;48.746;9.174;2023-02-28T04:51:18;-0.30;99.90
9915;DHT22;4996;48.746;9.174;2023-02-28T04:53:44;-0.30;99.90
9915;DHT22;4996;48.746;9.174;2023-02-28T04:56:12;0.10;99.90
9915;DHT22;4996;48.746;9.174;2023-02-28T04:58:38;-0.20;99.90
9915;DHT22;4996;48.746;9.174;2023-02-28T05:01:13;-0.10;99.90
9915;DHT22;4996;48.746;9.174;2023-02-28T05:03:41;-0.20;99.90
9915;DHT22;4996;48.746;9.174;2023-02-28T05:06:08;-0.10;99.90
9915;DHT22;4996;48.746;9.174;2023-02-28T05:08:34;-0.20;99.90
9915;DHT22;4996;48.746;9.174;2023-02-28T05:11:00;-0.20;99.90
9915;DHT22;4996;48.746;9.174;2023-02-28T05:13:26;-0.30;99.90
9915;DHT22;4996;48.746;9.174;2023-02-28T05:15:52;-0.20;99.90
9915;DHT22;4996;48.746;9.174;2023-02-28T05:18:18;-0.20;99.90
9915;DHT22;4996;48.746;9.174;2023-02-28T05:20:43;-0.30;99.90
9915;DHT22;4996;48.746;9.174;2023-02-28T05:23:12;-0.30;99.90
9915;DHT22;4996;48.746;9.174;2023-02-28T05:25:38;-0.20;99.90
9915;DHT22;4996;48.746;9.174;2023-02-28T05:28:04;-0.10;99.90
9915;DHT22;4996;48.746;9.174;2023-02-28T05:30:30;-0.10;99.90
9915;DHT22;4996;48.746;9.174;2023-02-28T05:32:57;0.00;99.90
9915;DHT22;4996;48.746;9.174;2023-02-28T05:35:22;0.10;99.90
9915;DHT22;4996;48.746;9.174;2023-02-28T05:37:48;0.00;99.90
9915;DHT22;4996;48.746;9.174;2023-02-28T05:40:14;0.10;99.90
9915;DHT22;4996;48.746;9.174;2023-02-28T05:42:40;0.20;99.90
9915;DHT22;4996;48.746;9.174;2023-02-28T05:45:07;0.20;99.90
9915;DHT22;4996;48.746;9.174;2023-02-28T05:47:33;0.20;99.90
9915;DHT22;4996;48.746;9.174;2023-02-28T05:49:58;0.20;99.90
9915;DHT22;4996;48.746;9.174;2023-02-28T05:52:24;0.20;99.90
9915;DHT22;4996;48.746;9.174;2023-02-28T05:54:49;0.10;99.90
9915;DHT22;4996;48.746;9.174;2023-02-28T05:57:15;0.00;99.90
9915;DHT22;4996;48.746;9.174;2023-02-28T05:59:41;0.00;99.90
9915;DHT22;4996;48.746;9.174;2023-02-28T06:02:12;0.10;99.90
9915;DHT22;4996;48.746;9.174;2023-02-28T06:04:37;0.10;99.90
9915;DHT22;4996;48.746;9.174;2023-02-28T06:07:03;0.00;99.90
9915;DHT22;4996;48.746;9.174;2023-02-28T06:09:29;0.00;99.90
9915;DHT22;4996;48.746;9.174;2023-02-28T06:11:56;0.10;99.90
9915;DHT22;4996;48.746;9.174;2023-02-28T06:14:22;0.10;99.90
9915;DHT22;4996;48.746;9.174;2023-02-28T06:16:47;0.10;99.90
9915;DHT22;4996;48.746;9.174;2023-02-28T06:19:13;0.10;99.90
9915;DHT22;4996;48.746;9.174;2023-02-28T06:21:40;0.10;99.90
9915;DHT22;4996;48.746;9.174;2023-02-28T06:24:06;0.10;99.90
9915;DHT22;4996;48.746;9.174;2023-02-28T06:26:31;0.20;99.90
9915;DHT22;4996;48.746;9.174;2023-02-28T06:28:57;0.20;99.90
9915;DHT22;4996;48.746;9.174;2023-02-28T06:31:23;0.00;99.90
9915;DHT22;4996;48.746;9.174;2023-02-28T06:33:49;0.00;99.90
9915;DHT22;4996;48.746;9.174;2023-02-28T06:36:16;0.00;99.90
9915;DHT22;4996;48.746;9.174;2023-02-28T06:38:42;-0.10;99.90
9915;DHT22;4996;48.746;9.174;2023-02-28T06:41:08;-0.10;99.90
9915;DHT22;4996;48.746;9.174;2023-02-28T06:43:37;-0.10;99.90
9915;DHT22;4996;48.746;9.174;2023-02-28T06:46:05;-0.10;99.90
9915;DHT22;4996;48.746;9.174;2023-02-28T06:48:31;0.00;99.90
9915;DHT22;4996;48.746;9.174;2023-02-28T06:51:09;-0.10;99.90
9915;DHT22;4996;48.746;9.174;2023-02-28T06:53:36;-0.10;99.90
9915;DHT22;4996;48.746;9.174;2023-02-28T06:56:06;-0.10;99.90
9915;DHT22;4996;48.746;9.174;2023-02-28T06:58:33;-0.10;99.90
9915;DHT22;4996;48.746;9.174;2023-02-28T07:00:59;0.10;99.90
9915;DHT22;4996;48.746;9.174;2023-02-28T07:03:24;0.10;99.90
9915;DHT22;4996;48.746;9.174;2023-02-28T07:05:50;0.20;99.90
9915;DHT22;4996;48.746;9.174;2023-02-28T07:08:16;0.30;99.90
9915;DHT22;4996;48.746;9.174;2023-02-28T07:10:41;0.10;99.90
9915;DHT22;4996;48.746;9.174;2023-02-28T07:13:08;0.00;99.90
9915;DHT22;4996;48.746;9.174;2023-02-28T07:15:35;0.00;99.90
9915;DHT22;4996;48.746;9.174;2023-02-28T07:18:01;0.10;99.90
9915;DHT22;4996;48.746;9.174;2023-02-28T07:20:26;-0.10;99.90
9915;DHT22;4996;48.746;9.174;2023-02-28T07:22:52;-0.10;99.90
9915;DHT22;4996;48.746;9.174;2023-02-28T07:25:26;0.30;99.90
9915;DHT22;4996;48.746;9.174;2023-02-28T07:27:53;-0.10;99.90
9915;DHT22;4996;48.746;9.174;2023-02-28T07:30:18;-0.10;99.90
9915;DHT22;4996;48.746;9.174;2023-02-28T07:32:44;0.00;99.90
9915;DHT22;4996;48.746;9.174;2023-02-28T07:35:10;-0.20;99.90
9915;DHT22;4996;48.746;9.174;2023-02-28T07:37:36;-0.10;99.90
9915;DHT22;4996;48.746;9.174;2023-02-28T07:40:09;0.10;99.90
9915;DHT22;4996;48.746;9.174;2023-02-28T07:42:35;0.30;99.90
9915;DHT22;4996;48.746;9.174;2023-02-28T07:45:02;0.40;99.90
9915;DHT22;4996;48.746;9.174;2023-02-28T07:47:29;0.50;99.90
9915;DHT22;4996;48.746;9.174;2023-02-28T07:49:55;0.50;99.90
9915;DHT22;4996;48.746;9.174;2023-02-28T07:52:21;0.40;99.90
9915;DHT22;4996;48.746;9.174;2023-02-28T07:54:48;0.50;99.90
9915;DHT22;4996;48.746;9.174;2023-02-28T07:57:14;0.50;99.90
9915;DHT22;4996;48.746;9.174;2023-02-28T07:59:40;0.70;99.90
9915;DHT22;4996;48.746;9.174;2023-02-28T08:02:05;0.60;99.90
9915;DHT22;4996;48.746;9.174;2023-02-28T08:04:33;0.80;99.90
9915;DHT22;4996;48.746;9.174;2023-02-28T08:06:59;0.90;99.90
9915;DHT22;4996;48.746;9.174;2023-02-28T08:09:24;0.70;99.90
9915;DHT22;4996;48.746;9.174;2023-02-28T08:11:50;0.70;99.90
9915;DHT22;4996;48.746;9.174;2023-02-28T08:14:15;0.70;99.90
9915;DHT22;4996;48.746;9.174;2023-02-28T08:16:41;0.70;99.90
9915;DHT22;4996;48.746;9.174;2023-02-28T08:19:08;0.80;99.90
9915;DHT22;4996;48.746;9.174;2023-02-28T08:21:34;0.80;99.90
9915;DHT22;4996;48.746;9.174;2023-02-28T08:24:00;0.70;99.90
9915;DHT22;4996;48.746;9.174;2023-02-28T08:26:25;0.70;99.90
9915;DHT22;4996;48.746;9.174;2023-02-28T08:28:51;0.70;99.90
9915;DHT22;4996;48.746;9.174;2023-02-28T08:31:17;0.80;99.90
9915;DHT22;4996;48.746;9.174;2023-02-28T08:33:43;0.90;99.90
9915;DHT22;4996;48.746;9.174;2023-02-28T08:36:10;1.20;99.90
9915;DHT22;4996;48.746;9.174;2023-02-28T08:38:36;0.80;99.90
9915;DHT22;4996;48.746;9.174;2023-02-28T08:41:05;0.90;99.90
9915;DHT22;4996;48.746;9.174;2023-02-28T08:43:33;1.00;99.90
9915;DHT22;4996;48.746;9.174;2023-02-28T08:45:59;1.20;99.90
9915;DHT22;4996;48.746;9.174;2023-02-28T08:48:30;1.00;99.90
9915;DHT22;4996;48.746;9.174;2023-02-28T08:50:57;1.20;99.90
9915;DHT22;4996;48.746;9.174;2023-02-28T08:53:23;1.00;99.90
9915;DHT22;4996;48.746;9.174;2023-02-28T08:55:59;0.80;99.90
9915;DHT22;4996;48.746;9.174;2023-02-28T08:58:25;0.80;99.90
9915;DHT22;4996;48.746;9.174;2023-02-28T09:00:51;0.90;99.90
9915;DHT22;4996;48.746;9.174;2023-02-28T09:03:17;1.30;99.90
9915;DHT22;4996;48.746;9.174;2023-02-28T09:05:52;1.00;99.90
9915;DHT22;4996;48.746;9.174;2023-02-28T09:08:18;1.10;99.90
9915;DHT22;4996;48.746;9.174;2023-02-28T09:10:43;1.00;99.90
9915;DHT22;4996;48.746;9.174;2023-02-28T09:13:09;1.10;99.90
9915;DHT22;4996;48.746;9.174;2023-02-28T09:15:34;1.10;99.90
9915;DHT22;4996;48.746;9.174;2023-02-28T09:18:02;1.20;99.90
9915;DHT22;4996;48.746;9.174;2023-02-28T09:20:27;1.10;99.90
9915;DHT22;4996;48.746;9.174;2023-02-28T09:22:52;1.20;99.90
9915;DHT22;4996;48.746;9.174;2023-02-28T09:25:18;1.30;99.90
9915;DHT22;4996;48.746;9.174;2023-02-28T09:27:43;1.30;99.90
9915;DHT22;4996;48.746;9.174;2023-02-28T09:30:11;1.10;99.90
9915;DHT22;4996;48.746;9.174;2023-02-28T09:32:37;1.10;99.90
9915;DHT22;4996;48.746;9.174;2023-02-28T09:35:02;1.00;99.90
9915;DHT22;4996;48.746;9.174;2023-02-28T09:37:28;1.10;99.90
9915;DHT22;4996;48.746;9.174;2023-02-28T09:39:54;1.10;99.90
9915;DHT22;4996;48.746;9.174;2023-02-28T09:42:27;1.00;99.90
9915;DHT22;4996;48.746;9.174;2023-02-28T09:44:56;1.60;99.90
9915;DHT22;4996;48.746;9.174;2023-02-28T09:47:36;1.80;99.90
9915;DHT22;4996;48.746;9.174;2023-02-28T09:52:59;1.70;99.90
9915;DHT22;4996;48.746;9.174;2023-02-28T09:55:41;1.90;99.90
9915;DHT22;4996;48.746;9.174;2023-02-28T09:58:23;2.50;99.90
9915;DHT22;4996;48.746;9.174;2023-02-28T10:01:18;2.00;99.90
9915;DHT22;4996;48.746;9.174;2023-02-28T10:03:51;2.10;99.90
9915;DHT22;4996;48.746;9.174;2023-02-28T10:06:21;2.00;99.90
9915;DHT22;4996;48.746;9.174;2023-02-28T10:09:11;1.70;99.90
9915;DHT22;4996;48.746;9.174;2023-02-28T10:11:41;1.90;99.90
9915;DHT22;4996;48.746;9.174;2023-02-28T10:14:18;1.70;99.90
9915;DHT22;4996;48.746;9.174;2023-02-28T10:17:01;1.70;99.90
9915;DHT22;4996;48.746;9.174;2023-02-28T10:22:10;1.50;99.90
9915;DHT22;4996;48.746;9.174;2023-02-28T10:24:45;1.80;99.90
9915;DHT22;4996;48.746;9.174;2023-02-28T10:27:20;2.20;99.90
9915;DHT22;4996;48.746;9.174;2023-02-28T10:29:49;1.50;99.90
9915;DHT22;4996;48.746;9.174;2023-02-28T10:32:18;1.50;99.90
9915;DHT22;4996;48.746;9.174;2023-02-28T10:34:44;1.80;99.90
9915;DHT22;4996;48.746;9.174;2023-02-28T10:37:12;2.60;99.90
9915;DHT22;4996;48.746;9.174;2023-02-28T10:39:41;2.10;99.90
9915;DHT22;4996;48.746;9.174;2023-02-28T10:42:25;2.60;99.90
9915;DHT22;4996;48.746;9.174;2023-02-28T10:48:00;2.30;99.90
9915;DHT22;4996;48.746;9.174;2023-02-28T10:52:53;2.30;99.90
9915;DHT22;4996;48.746;9.174;2023-02-28T10:55:24;2.10;99.90
9915;DHT22;4996;48.746;9.174;2023-02-28T10:57:53;2.30;99.90
9915;DHT22;4996;48.746;9.174;2023-02-28T11:00:24;2.60;99.90
9915;DHT22;4996;48.746;9.174;2023-02-28T11:02:53;2.60;99.90
9915;DHT22;4996;48.746;9.174;2023-02-28T11:08:05;2.50;99.90
9915;DHT22;4996;48.746;9.174;2023-02-28T11:10:32;2.90;99.90
9915;DHT22;4996;48.746;9.174;2023-02-28T11:13:00;3.30;99.90
9915;DHT22;4996;48.746;9.174;2023-02-28T11:15:29;3.50;99.90
9915;DHT22;4996;48.746;9.174;2023-02-28T11:18:02;4.10;99.90
9915;DHT22;4996;48.746;9.174;2023-02-28T11:20:33;4.20;99.90
9915;DHT22;4996;48.746;9.174;2023-02-28T11:23:01;4.60;99.90
9915;DHT22;4996;48.746;9.174;2023-02-28T11:25:37;5.40;99.90
9915;DHT22;4996;48.746;9.174;2023-02-28T11:28:24;5.20;99.90
9915;DHT22;4996;48.746;9.174;2023-02-28T11:31:04;4.80;99.90
9915;DHT22;4996;48.746;9.174;2023-02-28T11:33:53;4.10;99.90
9915;DHT22;4996;48.746;9.174;2023-02-28T11:36:22;4.30;99.90
9915;DHT22;4996;48.746;9.174;2023-02-28T11:38:52;5.20;99.90
9915;DHT22;4996;48.746;9.174;2023-02-28T11:41:35;6.30;98.60
9915;DHT22;4996;48.746;9.174;2023-02-28T11:46:50;6.20;96.60
9915;DHT22;4996;48.746;9.174;2023-02-28T11:49:32;7.90;95.10
9915;DHT22;4996;48.746;9.174;2023-02-28T11:55:08;8.80;89.00
9915;DHT22;4996;48.746;9.174;2023-02-28T11:58:10;9.70;85.80
9915;DHT22;4996;48.746;9.174;2023-02-28T12:03:43;9.10;80.90
9915;DHT22;4996;48.746;9.174;2023-02-28T12:09:20;10.30;74.70
9915;DHT22;4996;48.746;9.174;2023-02-28T12:18:17;10.00;73.40
9915;DHT22;4996;48.746;9.174;2023-02-28T12:28:30;11.70;66.80
9915;DHT22;4996;48.746;9.174;2023-02-28T12:31:11;12.10;66.90
9915;DHT22;4996;48.746;9.174;2023-02-28T12:33:46;11.70;63.90
9915;DHT22;4996;48.746;9.174;2023-02-28T12:36:18;10.50;65.30
9915;DHT22;4996;48.746;9.174;2023-02-28T12:39:10;9.60;67.50
9915;DHT22;4996;48.746;9.174;2023-02-28T12:41:59;9.60;69.50
9915;DHT22;4996;48.746;9.174;2023-02-28T12:47:02;8.70;71.10
9915;DHT22;4996;48.746;9.174;2023-02-28T12:49:37;8.10;71.90
9915;DHT22;4996;48.746;9.174;2023-02-28T12:52:04;8.10;73.20
9915;DHT22;4996;48.746;9.174;2023-02-28T12:54:46;7.60;73.70
9915;DHT22;4996;48.746;9.174;2023-02-28T12:57:34;7.60;74.30
9915;DHT22;4996;48.746;9.174;2023-02-28T13:00:14;7.30;74.10
9915;DHT22;4996;48.746;9.174;2023-02-28T13:02:51;7.10;75.30
9915;DHT22;4996;48.746;9.174;2023-02-28T13:10:50;6.40;77.40
9915;DHT22;4996;48.746;9.174;2023-02-28T13:13:24;6.20;77.90
9915;DHT22;4996;48.746;9.174;2023-02-28T13:15:58;6.20;79.30
9915;DHT22;4996;48.746;9.174;2023-02-28T13:18:44;5.70;79.80
9915;DHT22;4996;48.746;9.174;2023-02-28T13:21:23;5.90;81.20
9915;DHT22;4996;48.746;9.174;2023-02-28T13:39:56;5.70;83.80
9915;DHT22;4996;48.746;9.174;2023-02-28T13:42:22;5.80;85.00
9915;DHT22;4996;48.746;9.174;2023-02-28T13:47:40;5.90;84.90
9915;DHT22;4996;48.746;9.174;2023-02-28T13:56:07;5.60;85.10
9915;DHT22;4996;48.746;9.174;2023-02-28T13:58:53;5.70;86.00
9915;DHT22;4996;48.746;9.174;2023-02-28T14:01:43;5.70;86.10
9915;DHT22;4996;48.746;9.174;2023-02-28T14:07:00;5.40;86.40
9915;DHT22;4996;48.746;9.174;2023-02-28T14:09:40;5.30;87.30
9915;DHT22;4996;48.746;9.174;2023-02-28T14:15:33;5.50;87.30
9915;DHT22;4996;48.746;9.174;2023-02-28T14:18:03;5.60;86.80
9915;DHT22;4996;48.746;9.174;2023-02-28T14:20:31;5.30;87.90
9915;DHT22;4996;48.746;9.174;2023-02-28T14:23:18;5.30;89.00
9915;DHT22;4996;48.746;9.174;2023-02-28T14:29:01;5.50;89.20
9915;DHT22;4996;48.746;9.174;2023-02-28T14:31:39;5.60;88.80
9915;DHT22;4996;48.746;9.174;2023-02-28T14:34:20;5.70;87.60
9915;DHT22;4996;48.746;9.174;2023-02-28T14:36:48;5.70;87.70
9915;DHT22;4996;48.746;9.174;2023-02-28T14:39:19;5.80;87.60
9915;DHT22;4996;48.746;9.174;2023-02-28T14:41:46;5.90;88.00
9915;DHT22;4996;48.746;9.174;2023-02-28T14:44:24;5.70;88.50
9915;DHT22;4996;48.746;9.174;2023-02-28T14:46:55;5.50;88.60
9915;DHT22;4996;48.746;9.174;2023-02-28T14:49:27;5.40;89.00
9915;DHT22;4996;48.746;9.174;2023-02-28T14:52:15;5.60;89.00
9915;DHT22;4996;48.746;9.174;2023-02-28T14:54:43;5.80;89.40
9915;DHT22;4996;48.746;9.174;2023-02-28T14:57:30;5.80;89.20
9915;DHT22;4996;48.746;9.174;2023-02-28T15:02:41;6.30;87.60
9915;DHT22;4996;48.746;9.174;2023-02-28T15:07:39;5.70;88.50
9915;DHT22;4996;48.746;9.174;2023-02-28T15:10:19;5.90;88.60
9915;DHT22;4996;48.746;9.174;2023-02-28T15:13:00;6.00;88.60
9915;DHT22;4996;48.746;9.174;2023-02-28T15:15:47;5.90;88.30
9915;DHT22;4996;48.746;9.174;2023-02-28T15:21:18;6.00;89.00
9915;DHT22;4996;48.746;9.174;2023-02-28T15:23:51;5.70;88.90
9915;DHT22;4996;48.746;9.174;2023-02-28T15:26:22;5.60;89.00
9915;DHT22;4996;48.746;9.174;2023-02-28T15:28:52;5.70;88.70
9915;DHT22;4996;48.746;9.174;2023-02-28T15:31:29;5.60;89.20
9915;DHT22;4996;48.746;9.174;2023-02-28T15:34:03;5.70;89.20
9915;DHT22;4996;48.746;9.174;2023-02-28T15:36:32;5.40;89.60
9915;DHT22;4996;48.746;9.174;2023-02-28T15:39:00;5.50;89.70
9915;DHT22;4996;48.746;9.174;2023-02-28T15:41:28;5.50;90.00
9915;DHT22;4996;48.746;9.174;2023-02-28T15:44:29;5.30;90.30
9915;DHT22;4996;48.746;9.174;2023-02-28T15:49:28;5.40;90.40
9915;DHT22;4996;48.746;9.174;2023-02-28T15:51:58;5.70;90.60
9915;DHT22;4996;48.746;9.174;2023-02-28T15:54:29;5.30;90.40
9915;DHT22;4996;48.746;9.174;2023-02-28T15:57:03;5.40;90.60
9915;DHT22;4996;48.746;9.174;2023-02-28T15:59:31;5.50;90.80
9915;DHT22;4996;48.746;9.174;2023-02-28T16:02:15;5.60;90.90
9915;DHT22;4996;48.746;9.174;2023-02-28T16:07:35;5.40;90.90
9915;DHT22;4996;48.746;9.174;2023-02-28T16:10:01;5.60;91.20
9915;DHT22;4996;48.746;9.174;2023-02-28T16:12:29;5.60;91.00
9915;DHT22;4996;48.746;9.174;2023-02-28T16:14:57;5.40;91.20
9915;DHT22;4996;48.746;9.174;2023-02-28T16:17:31;5.40;91.50
9915;DHT22;4996;48.746;9.174;2023-02-28T16:19:58;5.40;91.50
9915;DHT22;4996;48.746;9.174;2023-02-28T16:22:23;5.30;91.70
9915;DHT22;4996;48.746;9.174;2023-02-28T16:24:49;5.40;91.70
9915;DHT22;4996;48.746;9.174;2023-02-28T16:27:22;5.30;91.80
9915;DHT22;4996;48.746;9.174;2023-02-28T16:29:48;5.30;92.30
9915;DHT22;4996;48.746;9.174;2023-02-28T16:32:15;5.30;92.00
9915;DHT22;4996;48.746;9.174;2023-02-28T16:34:44;5.40;92.10
9915;DHT22;4996;48.746;9.174;2023-02-28T16:37:13;5.30;92.10
9915;DHT22;4996;48.746;9.174;2023-02-28T16:39:39;5.20;92.20
9915;DHT22;4996;48.746;9.174;2023-02-28T16:42:04;5.20;92.20
9915;DHT22;4996;48.746;9.174;2023-02-28T16:44:35;5.20;92.40
9915;DHT22;4996;48.746;9.174;2023-02-28T16:47:03;5.20;92.30
9915;DHT22;4996;48.746;9.174;2023-02-28T16:49:29;5.00;92.50
9915;DHT22;4996;48.746;9.174;2023-02-28T16:51:54;5.00;92.70
9915;DHT22;4996;48.746;9.174;2023-02-28T16:54:20;4.90;93.00
9915;DHT22;4996;48.746;9.174;2023-02-28T16:56:47;5.00;92.90
9915;DHT22;4996;48.746;9.174;2023-02-28T16:59:13;5.10;92.90
9915;DHT22;4996;48.746;9.174;2023-02-28T17:01:41;5.00;92.90
9915;DHT22;4996;48.746;9.174;2023-02-28T17:04:10;5.00;92.90
9915;DHT22;4996;48.746;9.174;2023-02-28T17:06:35;5.00;93.00
9915;DHT22;4996;48.746;9.174;2023-02-28T17:09:01;5.10;93.10
9915;DHT22;4996;48.746;9.174;2023-02-28T17:11:27;5.00;93.20
9915;DHT22;4996;48.746;9.174;2023-02-28T17:13:52;5.10;93.20
9915;DHT22;4996;48.746;9.174;2023-02-28T17:16:33;5.00;93.30
9915;DHT22;4996;48.746;9.174;2023-02-28T17:19:03;5.00;93.60
9915;DHT22;4996;48.746;9.174;2023-02-28T17:21:29;5.20;93.60
9915;DHT22;4996;48.746;9.174;2023-02-28T17:23:54;5.10;93.80
9915;DHT22;4996;48.746;9.174;2023-02-28T17:26:21;4.90;93.80
9915;DHT22;4996;48.746;9.174;2023-02-28T17:28:47;4.90;93.90
9915;DHT22;4996;48.746;9.174;2023-02-28T17:31:13;4.90;93.90
9915;DHT22;4996;48.746;9.174;2023-02-28T17:33:39;4.80;94.00
9915;DHT22;4996;48.746;9.174;2023-02-28T17:36:05;4.80;94.00
9915;DHT22;4996;48.746;9.174;2023-02-28T17:38:30;4.70;94.00
9915;DHT22;4996;48.746;9.174;2023-02-28T17:40:56;4.60;94.20
9915;DHT22;4996;48.746;9.174;2023-02-28T17:43:26;4.60;94.30
9915;DHT22;4996;48.746;9.174;2023-02-28T17:45:53;4.60;94.40
9915;DHT22;4996;48.746;9.174;2023-02-28T17:48:19;4.60;94.40
9915;DHT22;4996;48.746;9.174;2023-02-28T17:50:45;4.50;94.60
9915;DHT22;4996;48.746;9.174;2023-02-28T17:53:10;4.40;94.80
9915;DHT22;4996;48.746;9.174;2023-02-28T17:55:36;4.40;94.90
9915;DHT22;4996;48.746;9.174;2023-02-28T17:58:03;4.40;95.10
9915;DHT22;4996;48.746;9.174;2023-02-28T18:00:29;4.50;95.40
9915;DHT22;4996;48.746;9.174;2023-02-28T18:02:54;4.40;95.10
9915;DHT22;4996;48.746;9.174;2023-02-28T18:05:20;4.70;95.40
9915;DHT22;4996;48.746;9.174;2023-02-28T18:07:45;4.40;95.10
9915;DHT22;4996;48.746;9.174;2023-02-28T18:10:17;4.40;95.10
9915;DHT22;4996;48.746;9.174;2023-02-28T18:12:45;4.40;95.20
9915;DHT22;4996;48.746;9.174;2023-02-28T18:15:11;4.40;95.30
9915;DHT22;4996;48.746;9.174;2023-02-28T18:17:36;4.30;95.30
9915;DHT22;4996;48.746;9.174;2023-02-28T18:20:02;4.30;95.60
9915;DHT22;4996;48.746;9.174;2023-02-28T18:22:29;4.20;95.40
9915;DHT22;4996;48.746;9.174;2023-02-28T18:24:55;4.30;95.50